Time;durP1;ratioP1;P1;durP2;ratioP2;P2;SDS_P1;SDS_P2;PMS_P1;PMS_P2;Temp;Humidity;BMP_temperature;BMP_pressure;BME280_temperature;BME280_humidity;BME280_pressure;Samples;Min_cycle;Max_cycle;Signal;HPM_P1;HPM_P2
2022/03/28 00:02:11;;;;;;;18.13;10.30;;;8.80;1.00;;;;;;7365934;19;20010;-62
2022/03/28 00:04:41;;;;;;;22.80;11.73;;;8.90;1.00;;;;;;7371527;19;20049;-63
2022/03/28 00:07:11;;;;;;;19.95;10.75;;;8.80;1.00;;;;;;7380173;19;20017;-62
2022/03/28 00:09:41;;;;;;;19.63;11.20;;;8.80;1.00;;;;;;7366572;19;20013;-62
2022/03/28 00:12:13;;;;;;;21.52;11.38;;;8.80;1.00;;;;;;7366451;19;20021;-63
2022/03/28 00:14:45;;;;;;;18.05;10.32;;;8.80;1.00;;;;;;7366245;19;20010;-62
2022/03/28 00:17:15;;;;;;;20.13;10.30;;;8.80;1.00;;;;;;7357869;19;21311;-63
2022/03/28 00:19:45;;;;;;;18.08;10.77;;;8.80;1.00;;;;;;7366483;19;20403;-63
2022/03/28 00:22:15;;;;;;;17.95;10.73;;;8.90;1.00;;;;;;7385610;19;20017;-62
2022/03/28 00:24:45;;;;;;;18.27;10.40;;;8.90;1.00;;;;;;7363571;19;20006;-62
2022/03/28 00:27:15;;;;;;;22.50;11.32;;;8.90;1.00;;;;;;7355121;19;20014;-62
2022/03/28 00:29:48;;;;;;;16.80;10.32;;;8.80;1.00;;;;;;7366448;19;20076;-62
2022/03/28 00:32:18;;;;;;;21.40;11.30;;;8.70;1.00;;;;;;7365442;19;20010;-62
2022/03/28 00:34:47;;;;;;;19.27;10.68;;;8.70;1.00;;;;;;7363405;19;20545;-62
2022/03/28 00:37:17;;;;;;;22.10;11.13;;;8.60;1.00;;;;;;7379284;19;20030;-62
2022/03/28 00:39:48;;;;;;;18.83;10.95;;;8.50;1.00;;;;;;7365310;19;20018;-62
2022/03/28 00:42:17;;;;;;;19.35;10.35;;;8.60;1.00;;;;;;7363728;19;20065;-62
2022/03/28 00:44:50;;;;;;;21.83;10.77;;;8.60;1.00;;;;;;7365905;19;20406;-62
2022/03/28 00:47:20;;;;;;;22.27;11.75;;;8.70;1.00;;;;;;7356640;19;20029;-62
2022/03/28 00:49:50;;;;;;;22.20;11.48;;;8.70;1.00;;;;;;7365889;19;20010;-64
2022/03/28 00:52:20;;;;;;;19.30;11.52;;;8.70;1.00;;;;;;7386281;19;20111;-62
2022/03/28 00:54:50;;;;;;;24.48;11.13;;;8.60;1.00;;;;;;7363886;19;20011;-62
2022/03/28 00:57:20;;;;;;;22.83;10.85;;;8.60;1.00;;;;;;7357026;19;20017;-62
2022/03/28 00:59:53;;;;;;;21.33;10.43;;;8.50;1.00;;;;;;7365613;19;20462;-62
2022/03/28 01:02:22;;;;;;;17.35;11.00;;;8.50;1.00;;;;;;7364159;19;20018;-62
2022/03/28 01:04:52;;;;;;;17.88;9.88;;;8.60;1.00;;;;;;7363076;19;20094;-63
2022/03/28 01:07:23;;;;;;;21.38;11.50;;;8.70;1.00;;;;;;7378286;19;20007;-63
2022/03/28 01:09:54;;;;;;;18.08;10.70;;;8.60;1.00;;;;;;7365034;19;20022;-62
2022/03/28 01:12:24;;;;;;;22.20;12.85;;;8.60;1.00;;;;;;7363303;19;20011;-62
2022/03/28 01:14:58;;;;;;;20.85;11.68;;;8.50;1.00;;;;;;7364739;19;20011;-62
2022/03/28 01:20:12;;;;;;;18.55;11.05;;;8.50;1.00;;;;;;7365095;19;20006;-62
2022/03/28 01:22:44;;;;;;;22.42;11.65;;;8.40;1.00;;;;;;7368167;19;20011;-62
2022/03/28 01:25:14;;;;;;;21.42;11.32;;;8.40;1.00;;;;;;7382707;19;20026;-61
2022/03/28 01:27:44;;;;;;;26.65;12.18;;;8.30;1.00;;;;;;7356688;19;20020;-62
2022/03/28 01:30:14;;;;;;;19.23;11.48;;;8.30;1.00;;;;;;7363108;19;20074;-62
2022/03/28 01:32:45;;;;;;;20.70;11.38;;;8.40;1.00;;;;;;7363385;19;20078;-62
2022/03/28 01:35:15;;;;;;;27.77;11.88;;;8.40;1.00;;;;;;7362055;19;20409;-61
2022/03/28 01:37:48;;;;;;;18.13;10.55;;;8.40;1.00;;;;;;7362789;19;20078;-62
2022/03/28 01:40:18;;;;;;;24.17;11.68;;;8.30;1.00;;;;;;7393154;19;20530;-62
2022/03/28 01:42:49;;;;;;;22.02;11.32;;;8.30;1.00;;;;;;7368898;19;20011;-61
2022/03/28 01:45:19;;;;;;;19.63;10.52;;;8.30;1.00;;;;;;7371070;19;20010;-62
2022/03/28 01:47:50;;;;;;;19.90;10.95;;;8.30;1.00;;;;;;7364610;19;20910;-62
2022/03/28 01:50:20;;;;;;;21.17;11.77;;;8.30;1.00;;;;;;7372056;19;20466;-63
2022/03/28 01:52:52;;;;;;;21.40;11.02;;;8.30;1.00;;;;;;7370443;19;20010;-63
2022/03/28 01:55:23;;;;;;;21.20;10.77;;;8.30;1.00;;;;;;7389724;19;20015;-63
2022/03/28 01:57:54;;;;;;;21.65;10.77;;;8.30;1.00;;;;;;7364680;19;20017;-62
2022/03/28 02:00:28;;;;;;;21.48;10.88;;;8.20;1.00;;;;;;7370860;19;20017;-62
2022/03/28 02:02:58;;;;;;;19.70;11.32;;;8.10;1.00;;;;;;7370484;19;20014;-62
2022/03/28 02:05:28;;;;;;;21.92;11.85;;;8.10;1.00;;;;;;7367739;19;20059;-62
2022/03/28 02:08:02;;;;;;;21.00;10.98;;;8.10;1.00;;;;;;7364848;19;20010;-63
2022/03/28 02:10:31;;;;;;;30.48;12.10;;;8.10;1.00;;;;;;7392771;19;20078;-62
2022/03/28 02:13:01;;;;;;;22.55;11.27;;;8.10;1.00;;;;;;7370217;19;20014;-63
2022/03/28 02:15:31;;;;;;;19.35;11.13;;;8.00;1.00;;;;;;7367466;19;20021;-62
2022/03/28 02:18:01;;;;;;;23.55;11.45;;;7.90;1.00;;;;;;7364067;19;20512;-62
2022/03/28 02:20:31;;;;;;;20.77;11.27;;;7.80;1.00;;;;;;7368766;19;20122;-62
2022/03/28 02:23:03;;;;;;;24.85;12.07;;;7.90;1.00;;;;;;7369152;19;20083;-62
2022/03/28 02:25:36;;;;;;;17.38;10.88;;;7.90;1.00;;;;;;7386438;19;20538;-61
2022/03/28 02:28:06;;;;;;;25.08;11.15;;;7.80;1.00;;;;;;7364747;19;20035;-62
2022/03/28 02:30:36;;;;;;;22.25;10.98;;;7.80;1.00;;;;;;7369829;19;20022;-62
2022/03/28 02:33:07;;;;;;;21.65;10.90;;;7.90;1.00;;;;;;7369762;19;20078;-62
2022/03/28 02:35:37;;;;;;;20.70;11.93;;;7.90;1.00;;;;;;7367202;19;20027;-62
2022/03/28 02:38:10;;;;;;;22.33;11.60;;;7.80;1.00;;;;;;7364456;19;20363;-61
2022/03/28 02:40:40;;;;;;;18.42;11.63;;;7.70;1.00;;;;;;7391369;19;20018;-61
2022/03/28 02:43:10;;;;;;;22.40;11.95;;;7.70;1.00;;;;;;7367644;19;20017;-62
2022/03/28 02:45:40;;;;;;;19.70;11.10;;;7.70;1.00;;;;;;7366457;19;20044;-62
2022/03/28 02:48:10;;;;;;;22.05;10.73;;;7.60;1.00;;;;;;7364145;19;20491;-62
2022/03/28 02:50:41;;;;;;;22.15;11.88;;;7.60;1.00;;;;;;7369426;19;20358;-62
2022/03/28 02:53:13;;;;;;;22.45;11.55;;;7.50;1.00;;;;;;7367815;19;20368;-62
2022/03/28 02:55:43;;;;;;;23.00;11.48;;;7.50;1.00;;;;;;7363898;19;20090;-63
2022/03/28 02:58:13;;;;;;;22.83;11.82;;;7.50;1.00;;;;;;7386909;19;20090;-62
2022/03/28 03:00:43;;;;;;;19.55;11.45;;;7.40;1.00;;;;;;7369668;19;20086;-62
2022/03/28 03:03:13;;;;;;;23.77;11.85;;;7.40;1.00;;;;;;7365866;19;20010;-62
2022/03/28 03:05:43;;;;;;;23.02;11.48;;;7.30;1.00;;;;;;7363439;19;20011;-62
2022/03/28 03:08:15;;;;;;;21.15;11.48;;;7.30;1.00;;;;;;7383886;19;20470;-66
2022/03/28 03:10:45;;;;;;;19.95;12.02;;;7.30;1.00;;;;;;7391678;19;20018;-62
2022/03/28 03:13:15;;;;;;;24.65;11.52;;;7.20;1.00;;;;;;7367504;19;20611;-63
2022/03/28 03:15:46;;;;;;;22.40;11.27;;;7.10;1.00;;;;;;7363454;19;21361;-63
2022/03/28 03:18:16;;;;;;;22.23;11.77;;;7.00;1.00;;;;;;7364871;19;20088;-63
2022/03/28 03:20:45;;;;;;;25.23;11.93;;;7.00;1.00;;;;;;7369527;19;20007;-62
2022/03/28 03:23:18;;;;;;;21.95;11.52;;;7.00;1.00;;;;;;7366236;19;20048;-63
2022/03/28 03:25:48;;;;;;;21.60;11.60;;;7.00;1.00;;;;;;7383950;19;20018;-64
2022/03/28 03:28:20;;;;;;;23.27;11.75;;;7.00;1.00;;;;;;7360213;19;20050;-62
2022/03/28 03:30:50;;;;;;;23.80;12.40;;;6.90;1.00;;;;;;7366771;19;20094;-62
2022/03/28 03:33:20;;;;;;;20.85;12.38;;;6.90;1.00;;;;;;7365630;19;20014;-61
2022/03/28 03:35:53;;;;;;;19.70;12.25;;;7.00;1.00;;;;;;7362043;19;20504;-62
2022/03/28 03:38:26;;;;;;;19.85;12.02;;;6.90;1.00;;;;;;7369870;19;20106;-63
2022/03/28 03:40:56;;;;;;;20.73;11.90;;;6.90;1.00;;;;;;7389794;19;20480;-62
2022/03/28 03:43:27;;;;;;;22.23;12.30;;;6.80;1.00;;;;;;7365638;19;20010;-62
2022/03/28 03:45:58;;;;;;;25.15;11.43;;;6.70;1.00;;;;;;7361287;19;20006;-63
2022/03/28 03:48:29;;;;;;;21.73;12.18;;;6.70;1.00;;;;;;7366680;19;20014;-62
2022/03/28 03:50:59;;;;;;;24.80;12.45;;;6.80;1.00;;;;;;7368142;19;20014;-62
2022/03/28 03:53:32;;;;;;;22.83;11.70;;;6.70;1.00;;;;;;7366008;19;20027;-62
2022/03/28 03:56:02;;;;;;;25.70;12.65;;;6.80;1.00;;;;;;7382082;19;20736;-63
2022/03/28 03:58:32;;;;;;;28.35;11.20;;;6.70;1.00;;;;;;7365128;19;20077;-62
2022/03/28 04:01:02;;;;;;;22.50;12.15;;;6.70;1.00;;;;;;7367384;19;20470;-62
2022/03/28 04:03:33;;;;;;;20.50;11.27;;;6.70;1.00;;;;;;7364962;19;20347;-62
2022/03/28 04:06:03;;;;;;;21.80;11.45;;;6.60;1.00;;;;;;7360539;19;20011;-61
2022/03/28 04:08:35;;;;;;;21.65;11.82;;;6.60;1.00;;;;;;7365782;19;20085;-62
2022/03/28 04:11:05;;;;;;;19.25;10.88;;;6.60;1.00;;;;;;7389153;19;20020;-63
2022/03/28 04:13:35;;;;;;;22.48;11.13;;;6.70;1.00;;;;;;7365209;19;20020;-62
2022/03/28 04:16:05;;;;;;;25.17;11.13;;;6.60;1.00;;;;;;7359324;19;20110;-63
2022/03/28 04:18:35;;;;;;;23.85;10.82;;;6.60;1.00;;;;;;7366037;19;20006;-62
2022/03/28 04:21:05;;;;;;;21.55;10.70;;;6.60;1.00;;;;;;7365840;19;20089;-62
2022/03/28 04:23:38;;;;;;;21.60;11.07;;;6.60;1.00;;;;;;7364428;19;20489;-62
2022/03/28 04:26:08;;;;;;;19.50;11.18;;;6.60;1.00;;;;;;7381126;19;20031;-62
2022/03/28 04:28:38;;;;;;;22.42;11.45;;;6.60;1.00;;;;;;7367035;19;20010;-63
2022/03/28 04:31:08;;;;;;;22.55;10.95;;;6.60;1.00;;;;;;7366288;19;20027;-63
2022/03/28 04:33:38;;;;;;;22.42;10.65;;;6.60;1.00;;;;;;7364122;19;20010;-62
2022/03/28 04:36:08;;;;;;;24.48;12.00;;;6.60;1.00;;;;;;7358309;19;20013;-62
2022/03/28 04:38:41;;;;;;;21.85;10.43;;;6.60;1.00;;;;;;7366287;19;20021;-63
2022/03/28 04:41:11;;;;;;;18.35;10.93;;;6.60;1.00;;;;;;7387897;19;20017;-62
2022/03/28 04:43:40;;;;;;;25.38;11.07;;;6.60;1.00;;;;;;7364120;19;20013;-62
2022/03/28 04:46:10;;;;;;;20.80;10.60;;;6.50;1.00;;;;;;7357027;19;20102;-62
2022/03/28 04:48:47;;;;;;;22.15;11.32;;;6.60;1.00;;;;;;7366147;19;20014;-63
2022/03/28 04:51:17;;;;;;;19.25;10.27;;;6.70;1.00;;;;;;7365436;19;20018;-62
2022/03/28 04:53:49;;;;;;;20.80;10.95;;;6.80;1.00;;;;;;7364172;19;20018;-62
2022/03/28 04:56:19;;;;;;;18.48;10.60;;;6.70;1.00;;;;;;7378185;19;20014;-63
2022/03/28 04:58:49;;;;;;;21.52;10.73;;;6.70;1.00;;;;;;7366082;19;20021;-62
2022/03/28 05:01:19;;;;;;;22.77;10.55;;;6.60;1.00;;;;;;7364954;19;20443;-62
2022/03/28 05:03:49;;;;;;;23.23;11.30;;;6.50;1.00;;;;;;7363481;19;20415;-61
2022/03/28 05:06:19;;;;;;;22.92;10.90;;;6.40;1.00;;;;;;7356769;19;20834;-62
2022/03/28 05:08:51;;;;;;;23.45;10.93;;;6.30;1.00;;;;;;7364146;19;20011;-61
2022/03/28 05:11:22;;;;;;;24.10;11.07;;;6.40;1.00;;;;;;7391750;19;20014;-62
2022/03/28 05:13:52;;;;;;;19.88;11.48;;;6.40;1.00;;;;;;7371212;19;20482;-63
2022/03/28 05:16:22;;;;;;;26.85;11.55;;;6.50;1.00;;;;;;7362106;19;20017;-62
2022/03/28 05:18:52;;;;;;;29.80;12.15;;;6.60;1.00;;;;;;7370781;19;20660;-61
2022/03/28 05:21:22;;;;;;;24.55;11.05;;;6.70;1.00;;;;;;7371586;19;20017;-62
2022/03/28 05:23:54;;;;;;;18.63;10.85;;;6.80;1.00;;;;;;7368874;19;20020;-62
2022/03/28 05:26:26;;;;;;;21.17;10.90;;;6.60;1.00;;;;;;7363630;19;20021;-65
2022/03/28 05:28:56;;;;;;;25.27;12.43;;;6.70;1.00;;;;;;7391965;19;20083;-63
2022/03/28 05:31:27;;;;;;;21.15;10.40;;;7.00;1.00;;;;;;7370537;19;20535;-62
2022/03/28 05:33:57;;;;;;;24.52;11.43;;;7.30;1.00;;;;;;7368558;19;20014;-62
2022/03/28 05:36:28;;;;;;;23.33;11.20;;;7.10;1.00;;;;;;7362595;19;20046;-63
2022/03/28 05:39:01;;;;;;;20.83;9.73;;;6.80;1.00;;;;;;7371375;19;20006;-62
2022/03/28 05:41:31;;;;;;;31.95;10.88;;;6.70;1.00;;;;;;7371110;19;20086;-62
2022/03/28 05:44:01;;;;;;;26.40;11.48;;;6.80;1.00;;;;;;7390821;19;20022;-64
2022/03/28 05:46:31;;;;;;;22.55;10.52;;;6.90;1.00;;;;;;7361733;19;20013;-61
2022/03/28 05:49:01;;;;;;;18.65;10.68;;;6.90;1.00;;;;;;7370013;19;20043;-62
2022/03/28 05:51:31;;;;;;;23.42;10.85;;;6.90;1.00;;;;;;7371015;19;20478;-63
2022/03/28 05:54:04;;;;;;;21.73;11.27;;;6.90;1.00;;;;;;7368495;19;20693;-62
2022/03/28 05:56:34;;;;;;;21.52;10.82;;;6.90;1.00;;;;;;7362602;19;20092;-62
2022/03/28 05:59:07;;;;;;;22.45;11.32;;;6.80;1.00;;;;;;7391688;19;20661;-63
2022/03/28 06:01:37;;;;;;;19.88;10.48;;;7.00;1.00;;;;;;7370818;19;20010;-62
2022/03/28 06:04:08;;;;;;;23.35;10.80;;;7.00;1.00;;;;;;7367478;19;20466;-62
2022/03/28 06:06:38;;;;;;;26.38;11.32;;;7.00;1.00;;;;;;7362219;19;20010;-62
2022/03/28 06:09:11;;;;;;;19.65;10.73;;;7.10;1.00;;;;;;7366353;19;20078;-63
2022/03/28 06:11:40;;;;;;;19.20;9.75;;;7.10;1.00;;;;;;7366180;19;20014;-61
2022/03/28 06:14:11;;;;;;;24.33;10.93;;;7.10;1.00;;;;;;7385577;19;20010;-62
2022/03/28 06:16:40;;;;;;;25.58;11.02;;;7.30;1.00;;;;;;7356822;19;20021;-61
2022/03/28 06:19:10;;;;;;;20.35;11.52;;;7.20;1.00;;;;;;7365275;19;20089;-63
2022/03/28 06:21:40;;;;;;;19.98;11.05;;;7.40;1.00;;;;;;7364689;19;20102;-62
2022/03/28 06:24:13;;;;;;;27.85;11.85;;;7.50;1.00;;;;;;7366167;19;20012;-62
2022/03/28 06:26:43;;;;;;;24.38;11.02;;;7.60;1.00;;;;;;7362084;19;20014;-62
2022/03/28 06:29:12;;;;;;;23.50;10.05;;;7.70;1.00;;;;;;7391192;19;20458;-62
2022/03/28 06:31:42;;;;;;;18.55;10.88;;;7.80;1.00;;;;;;7369144;19;20018;-62
2022/03/28 06:34:16;;;;;;;29.73;11.20;;;7.90;1.00;;;;;;7366151;19;20083;-62
2022/03/28 06:36:46;;;;;;;23.98;11.05;;;7.90;1.00;;;;;;7361170;19;20082;-63
2022/03/28 06:39:18;;;;;;;36.78;12.60;;;8.00;1.00;;;;;;7369342;19;20010;-62
2022/03/28 06:41:48;;;;;;;26.75;11.00;;;8.10;1.00;;;;;;7369913;19;20018;-62
2022/03/28 06:44:18;;;;;;;18.67;10.35;;;8.30;1.00;;;;;;7388167;19;20016;-62
2022/03/28 06:46:49;;;;;;;21.35;11.35;;;8.40;1.00;;;;;;7360963;19;20010;-62
2022/03/28 06:49:19;;;;;;;22.67;11.45;;;8.50;1.00;;;;;;7368223;19;20018;-62
2022/03/28 06:51:49;;;;;;;27.63;12.02;;;8.60;1.00;;;;;;7367607;19;20143;-62
2022/03/28 06:54:22;;;;;;;23.83;11.93;;;8.60;1.00;;;;;;7365694;19;20522;-62
2022/03/28 06:56:51;;;;;;;21.98;11.02;;;8.60;1.00;;;;;;7360842;19;20010;-61
2022/03/28 06:59:23;;;;;;;22.33;11.40;;;8.50;1.00;;;;;;7389992;19;20506;-63
2022/03/28 07:01:54;;;;;;;21.27;11.85;;;8.70;1.00;;;;;;7365797;19;20015;-62
2022/03/28 07:04:25;;;;;;;24.27;11.52;;;8.90;1.00;;;;;;7366314;19;20029;-62
2022/03/28 07:06:55;;;;;;;24.77;11.50;;;8.90;1.00;;;;;;7360272;19;20105;-62
2022/03/28 07:09:27;;;;;;;26.17;12.02;;;9.10;1.00;;;;;;7366609;19;20010;-62
2022/03/28 07:11:58;;;;;;;23.23;11.38;;;9.30;1.00;;;;;;7366967;19;20108;-63
2022/03/28 07:14:27;;;;;;;23.40;11.20;;;9.30;1.00;;;;;;7365365;19;20038;-63
2022/03/28 07:16:57;;;;;;;25.27;11.80;;;9.40;1.00;;;;;;7380950;19;20492;-62
2022/03/28 07:19:27;;;;;;;23.23;12.00;;;9.60;1.00;;;;;;7366941;19;20025;-62
2022/03/28 07:21:57;;;;;;;26.80;12.55;;;9.60;1.00;;;;;;7367974;19;20031;-62
2022/03/28 07:24:30;;;;;;;24.00;12.48;;;9.80;1.00;;;;;;7365235;19;20110;-61
2022/03/28 07:27:00;;;;;;;24.88;12.10;;;9.80;1.00;;;;;;7357522;19;20018;-62
2022/03/28 07:29:30;;;;;;;28.77;12.07;;;10.00;1.00;;;;;;7368076;19;20074;-61
2022/03/28 07:32:00;;;;;;;24.88;12.73;;;10.00;1.00;;;;;;7389028;19;20070;-63
2022/03/28 07:34:34;;;;;;;28.52;11.98;;;10.00;1.00;;;;;;7362102;19;20497;-64
2022/03/28 07:37:06;;;;;;;27.42;12.73;;;10.20;1.00;;;;;;7357595;19;20014;-63
2022/03/28 07:39:40;;;;;;;24.50;11.93;;;10.40;1.00;;;;;;7368009;19;20122;-63
2022/03/28 07:42:12;;;;;;;24.05;12.43;;;10.50;1.00;;;;;;7367071;19;20017;-62
2022/03/28 07:44:42;;;;;;;26.40;12.18;;;10.70;1.00;;;;;;7365316;19;20018;-63
2022/03/28 07:47:13;;;;;;;24.42;11.75;;;10.80;1.00;;;;;;7378334;19;20016;-62
2022/03/28 07:49:43;;;;;;;23.88;11.93;;;10.70;1.00;;;;;;7366385;19;20081;-63
2022/03/28 07:52:12;;;;;;;25.80;12.68;;;11.00;1.00;;;;;;7367590;19;20025;-64
2022/03/28 07:54:45;;;;;;;22.00;12.20;;;11.00;1.00;;;;;;7364815;19;20086;-63
2022/03/28 07:57:15;;;;;;;23.30;11.63;;;11.20;1.00;;;;;;7356412;19;20491;-63
2022/03/28 07:59:46;;;;;;;24.13;12.85;;;11.30;1.00;;;;;;7365980;19;20090;-61
2022/03/28 08:02:36;;;;;;;22.50;11.45;;;11.50;1.00;;;;;;7366772;19;20299;-64
2022/03/28 08:05:08;;;;;;;22.60;12.00;;;11.50;1.00;;;;;;7386208;19;20075;-62
2022/03/28 08:07:38;;;;;;;24.55;11.32;;;11.60;1.00;;;;;;7357662;19;20830;-63
2022/03/28 08:10:13;;;;;;;23.73;12.40;;;11.80;1.00;;;;;;7366458;19;20194;-63
2022/03/28 08:12:43;;;;;;;;;;;11.90;1.00;;;;;;7363980;19;20019;-62
2022/03/28 08:15:15;;;;;;;21.17;12.25;;;12.10;1.00;;;;;;7365228;19;19911;-64
2022/03/28 08:17:46;;;;;;;23.88;11.98;;;12.20;1.00;;;;;;7358075;19;20017;-64
2022/03/28 08:20:16;;;;;;;23.13;13.15;;;12.30;1.00;;;;;;7387415;19;20712;-63
2022/03/28 08:22:49;;;;;;;26.48;11.63;;;12.50;1.00;;;;;;7365358;19;20006;-62
2022/03/28 08:25:25;;;;;;;21.92;12.00;;;12.70;1.00;;;;;;7363292;19;20123;-63
2022/03/28 08:27:55;;;;;;;28.27;12.93;;;12.80;1.00;;;;;;7359353;19;20011;-62
2022/03/28 08:30:25;;;;;;;25.25;12.23;;;12.90;1.00;;;;;;7366240;19;20086;-62
2022/03/28 08:32:55;;;;;;;28.27;13.20;;;12.90;1.00;;;;;;7365683;19;20036;-63
2022/03/28 08:35:27;;;;;;;30.95;12.55;;;13.10;1.00;;;;;;7363157;19;20007;-62
2022/03/28 08:37:57;;;;;;;25.52;12.93;;;13.10;1.00;;;;;;7381759;19;20438;-62
2022/03/28 08:40:30;;;;;;;24.77;11.63;;;13.20;1.00;;;;;;7364850;19;20497;-62
2022/03/28 08:43:03;;;;;;;22.52;12.18;;;13.30;1.00;;;;;;7364534;19;20006;-63
2022/03/28 08:45:33;;;;;;;28.90;12.55;;;13.50;1.00;;;;;;7357627;19;20037;-62
2022/03/28 08:48:04;;;;;;;27.63;12.63;;;13.60;1.00;;;;;;7356600;19;20465;-63
2022/03/28 08:50:43;;;;;;;22.17;12.30;;;13.70;1.00;;;;;;7362177;19;20014;-63
2022/03/28 08:53:13;;;;;;;22.58;13.05;;;13.50;1.00;;;;;;7381885;19;20014;-63
2022/03/28 08:55:47;;;;;;;23.65;13.40;;;13.70;1.00;;;;;;7356510;19;20402;-63
2022/03/28 08:58:18;;;;;;;26.90;13.13;;;14.10;1.00;;;;;;7359639;19;20023;-63
2022/03/28 09:00:47;;;;;;;21.15;12.10;;;14.10;1.00;;;;;;7365035;19;20029;-64
2022/03/28 09:03:18;;;;;;;23.40;12.02;;;13.70;1.00;;;;;;7362349;19;20455;-64
2022/03/28 09:05:50;;;;;;;24.50;12.65;;;14.30;1.00;;;;;;7357905;19;20474;-64
2022/03/28 09:08:25;;;;;;;27.13;12.43;;;14.40;1.00;;;;;;7383693;19;20098;-63
2022/03/28 09:10:58;;;;;;;25.60;13.77;;;14.50;1.00;;;;;;7363346;19;20082;-64
2022/03/28 09:13:29;;;;;;;27.55;13.30;;;14.80;1.00;;;;;;7362457;19;20014;-64
2022/03/28 09:16:06;;;;;;;29.15;13.32;;;14.90;1.00;;;;;;7357232;19;20061;-63
2022/03/28 09:18:39;;;;;;;25.42;11.82;;;14.90;1.00;;;;;;7364865;19;20011;-64
2022/03/28 09:21:14;;;;;;;24.52;12.75;;;14.90;1.00;;;;;;7364925;19;20498;-62
2022/03/28 09:23:46;;;;;;;28.85;11.98;;;15.10;1.00;;;;;;7362484;19;20481;-64
2022/03/28 09:26:22;;;;;;;21.83;12.05;;;15.20;1.00;;;;;;7376472;19;20017;-63
2022/03/28 09:28:56;;;;;;;30.70;12.80;;;15.30;1.00;;;;;;7359327;19;20082;-64
2022/03/28 09:31:30;;;;;;;23.10;12.77;;;15.50;1.00;;;;;;7363361;19;20066;-63
2022/03/28 09:34:08;;;;;;;29.05;11.73;;;15.70;1.00;;;;;;7361635;19;20422;-64
2022/03/28 09:36:43;;;;;;;19.77;11.48;;;15.50;1.00;;;;;;7355685;19;20414;-64
2022/03/28 09:39:16;;;;;;;23.38;11.52;;;15.60;1.00;;;;;;7364137;19;20011;-64
2022/03/28 09:42:01;;;;;;;21.77;11.02;;;15.70;1.00;;;;;;7362081;19;20426;-64
2022/03/28 09:44:40;;;;;;;22.27;11.75;;;15.60;1.00;;;;;;7361305;19;20019;-64
2022/03/28 09:47:12;;;;;;;21.70;12.02;;;15.90;1.00;;;;;;7376429;19;20007;-63
2022/03/28 09:49:45;;;;;;;25.73;12.55;;;15.90;1.00;;;;;;7360759;19;20006;-64
2022/03/28 09:52:16;;;;;;;20.90;12.55;;;16.00;1.00;;;;;;7363543;19;20101;-64
2022/03/28 09:54:49;;;;;;;24.23;12.23;;;15.90;1.00;;;;;;7359971;19;20006;-63
2022/03/28 09:57:25;;;;;;;20.30;11.93;;;16.20;1.00;;;;;;7356655;19;20006;-64
2022/03/28 09:59:56;;;;;;;20.48;12.13;;;16.30;1.00;;;;;;7368801;19;20097;-64
2022/03/28 10:02:28;;;;;;;21.05;12.10;;;16.40;1.00;;;;;;7370056;19;20010;-65
2022/03/28 10:04:59;;;;;;;23.55;11.63;;;16.30;1.00;;;;;;7385875;19;20025;-66
2022/03/28 10:07:29;;;;;;;21.50;11.27;;;16.30;1.00;;;;;;7358239;19;20014;-64
2022/03/28 10:10:00;;;;;;;26.10;12.50;;;16.70;1.00;;;;;;7369800;19;20087;-63
2022/03/28 10:12:32;;;;;;;24.00;14.13;;;16.70;1.00;;;;;;7370436;19;20023;-62
2022/03/28 10:15:02;;;;;;;25.50;11.63;;;16.90;1.00;;;;;;7368019;19;20110;-64
2022/03/28 10:17:34;;;;;;;22.30;12.45;;;17.00;1.00;;;;;;7360368;19;20006;-65
2022/03/28 10:20:04;;;;;;;21.67;12.45;;;17.00;1.00;;;;;;7390510;19;20014;-65
2022/03/28 10:22:57;;;;;;;23.73;13.07;;;17.10;1.00;;;;;;7370877;19;20021;-63
2022/03/28 10:25:28;;;;;;;23.63;11.48;;;17.20;1.00;;;;;;7364193;19;20036;-64
2022/03/28 10:28:02;;;;;;;22.83;11.75;;;17.20;1.00;;;;;;7362832;19;20015;-65
2022/03/28 10:30:33;;;;;;;30.25;13.55;;;17.40;1.00;;;;;;7369526;19;20019;-63
2022/03/28 10:33:10;;;;;;;22.20;11.85;;;17.30;1.00;;;;;;7369951;19;20499;-63
2022/03/28 10:35:41;;;;;;;25.17;12.38;;;17.30;1.00;;;;;;7365186;19;20018;-64
2022/03/28 10:38:17;;;;;;;21.35;12.82;;;17.40;1.00;;;;;;7385828;19;20022;-64
2022/03/28 10:40:59;;;;;;;22.25;12.77;;;17.80;1.00;;;;;;7368663;19;20073;-63
2022/03/28 10:43:33;;;;;;;22.17;12.50;;;17.80;1.00;;;;;;7365471;19;20018;-63
2022/03/28 10:46:05;;;;;;;25.27;12.93;;;18.00;1.00;;;;;;7359625;19;20006;-64
2022/03/28 10:48:40;;;;;;;25.38;11.85;;;17.90;1.00;;;;;;7367628;19;20014;-63
2022/03/28 10:51:11;;;;;;;25.48;12.95;;;18.10;1.00;;;;;;7368386;19;20397;-63
2022/03/28 10:53:43;;;;;;;22.15;12.23;;;18.30;1.00;;;;;;7367062;19;20017;-63
2022/03/28 10:56:16;;;;;;;22.63;11.77;;;18.50;1.00;;;;;;7381632;19;20078;-64
2022/03/28 10:58:53;;;;;;;25.75;12.65;;;18.10;1.00;;;;;;7369279;19;20013;-64
2022/03/28 11:01:26;;;;;;;23.30;12.27;;;18.30;1.00;;;;;;7365985;19;20402;-64
2022/03/28 11:04:00;;;;;;;20.98;12.32;;;18.30;1.00;;;;;;7366517;19;20123;-64
2022/03/28 11:06:53;;;;;;;24.23;13.13;;;18.40;1.00;;;;;;7356289;19;20028;-64
2022/03/28 11:09:37;;;;;;;24.95;13.50;;;18.40;1.00;;;;;;7367109;19;20012;-64
2022/03/28 11:12:14;;;;;;;21.40;12.95;;;18.50;1.00;;;;;;7366996;19;20006;-63
2022/03/28 11:14:56;;;;;;;23.40;13.27;;;18.30;1.00;;;;;;7364888;19;20080;-64
2022/03/28 11:17:28;;;;;;;29.45;14.05;;;18.30;1.00;;;;;;7357569;19;20048;-64
2022/03/28 11:20:18;;;;;;;24.67;13.07;;;18.70;1.00;;;;;;7389313;19;20471;-63
2022/03/28 11:22:51;;;;;;;34.50;13.57;;;18.30;1.00;;;;;;7368069;19;20018;-64
2022/03/28 11:25:41;;;;;;;22.02;13.27;;;18.50;1.00;;;;;;7364323;19;20017;-63
2022/03/28 11:28:17;;;;;;;22.85;13.13;;;18.80;1.00;;;;;;7360880;19;20094;-64
2022/03/28 11:30:59;;;;;;;27.05;13.70;;;19.00;1.00;;;;;;7367594;19;20018;-63
2022/03/28 11:33:38;;;;;;;20.40;12.82;;;18.30;1.00;;;;;;7367031;19;20010;-63
2022/03/28 11:36:11;;;;;;;25.83;13.13;;;18.20;1.00;;;;;;7360338;19;20852;-63
2022/03/28 11:38:46;;;;;;;25.30;13.63;;;18.40;1.00;;;;;;7366655;19;20078;-64
2022/03/28 11:41:19;;;;;;;26.30;13.35;;;18.50;1.00;;;;;;7388306;19;20038;-65
2022/03/28 11:43:52;;;;;;;22.13;12.40;;;18.80;1.00;;;;;;7365743;19;20026;-64
2022/03/28 11:46:26;;;;;;;21.45;12.57;;;19.00;1.00;;;;;;7357080;19;20017;-63
2022/03/28 11:48:58;;;;;;;20.90;12.02;;;18.80;1.00;;;;;;7367223;19;20007;-64
2022/03/28 11:51:30;;;;;;;27.13;14.02;;;18.40;1.00;;;;;;7364230;19;20021;-64
2022/03/28 11:54:01;;;;;;;21.80;13.20;;;18.90;1.00;;;;;;7365090;19;20007;-64
2022/03/28 11:56:32;;;;;;;24.15;12.48;;;19.00;1.00;;;;;;7357828;19;20074;-63
2022/03/28 11:59:05;;;;;;;23.73;12.32;;;18.90;1.00;;;;;;7389289;19;20390;-65
2022/03/28 12:01:38;;;;;;;27.02;13.13;;;18.90;1.00;;;;;;7363235;19;20022;-63
2022/03/28 12:04:11;;;;;;;25.55;13.98;;;19.00;1.00;;;;;;7361996;19;20018;-63
2022/03/28 12:06:42;;;;;;;24.38;13.02;;;19.10;1.00;;;;;;7356633;19;20006;-63
2022/03/28 12:09:17;;;;;;;27.50;13.73;;;19.20;1.00;;;;;;7365968;19;20002;-63
2022/03/28 12:11:50;;;;;;;22.88;11.40;;;19.20;1.00;;;;;;7366025;19;20837;-63
2022/03/28 12:14:21;;;;;;;20.67;12.50;;;19.40;1.00;;;;;;7384673;19;20022;-63
2022/03/28 12:16:55;;;;;;;21.55;11.88;;;19.40;1.00;;;;;;7355188;19;20010;-63
2022/03/28 12:19:26;;;;;;;20.90;11.75;;;19.60;1.00;;;;;;7362289;19;20031;-62
2022/03/28 12:21:57;;;;;;;21.80;11.75;;;19.70;1.00;;;;;;7364346;19;20010;-63
2022/03/28 12:24:31;;;;;;;18.52;10.63;;;19.90;1.00;;;;;;7360986;19;20006;-63
2022/03/28 12:27:01;;;;;;;20.70;12.25;;;19.70;1.00;;;;;;7354702;19;20002;-63
2022/03/28 12:29:35;;;;;;;21.45;11.50;;;19.50;1.00;;;;;;7361765;19;20471;-63
2022/03/28 12:32:09;;;;;;;21.60;10.82;;;19.70;1.00;;;;;;7384349;19;20019;-63
2022/03/28 12:34:39;;;;;;;20.58;10.90;;;19.80;1.00;;;;;;7359935;19;20007;-64
2022/03/28 12:37:17;;;;;;;20.33;11.15;;;19.70;1.00;;;;;;7356479;19;20011;-62
2022/03/28 12:39:47;;;;;;;20.23;11.02;;;19.70;1.00;;;;;;7362828;19;20082;-63
2022/03/28 12:42:27;;;;;;;17.98;9.95;;;20.00;1.00;;;;;;7363822;19;20465;-63
2022/03/28 12:44:57;;;;;;;20.90;11.00;;;20.00;1.00;;;;;;7361553;19;20036;-64
2022/03/28 12:47:31;;;;;;;23.38;10.70;;;19.90;1.00;;;;;;7355547;19;20028;-65
2022/03/28 12:50:01;;;;;;;18.38;10.55;;;20.20;1.00;;;;;;7383165;19;20075;-64
2022/03/28 12:52:34;;;;;;;17.45;10.00;;;20.30;1.00;;;;;;7361656;19;20427;-64
2022/03/28 12:55:04;;;;;;;19.30;10.15;;;20.00;1.00;;;;;;7360004;19;20006;-65
2022/03/28 12:57:37;;;;;;;23.67;10.80;;;20.10;1.00;;;;;;7355152;19;20014;-64
2022/03/28 13:00:10;;;;;;;22.58;10.75;;;19.90;1.00;;;;;;7362406;19;20015;-65
2022/03/28 13:02:54;;;;;;;22.75;10.85;;;19.90;1.00;;;;;;7364696;19;20026;-62
2022/03/28 13:05:26;;;;;;;19.55;10.40;;;20.10;1.00;;;;;;7361292;19;20358;-61
2022/03/28 13:08:07;;;;;;;19.75;10.90;;;20.10;1.00;;;;;;7380134;19;20016;-60
2022/03/28 13:10:42;;;;;;;20.08;11.00;;;19.80;1.00;;;;;;7363668;19;20014;-60